<?xml version='1.0' encoding='UTF-8'?><gpx version="1.1" creator="JPX - https://github.com/jenetics/jpx" xmlns="http://www.topografix.com/GPX/1/1"><trk><trkseg><trkpt lat="45.53832982671032" lon="11.528156641881473"><ele>37.0</ele><time>2026-04-01T21:58:06.991Z</time></trkpt><trkpt lat="45.53835399581596" lon="11.528044311584337"><ele>37.0</ele><time>2026-04-01T21:58:08.992Z</time></trkpt><trkpt lat="45.53838356359263" lon="11.52795844641823"><ele>37.0</ele><time>2026-04-01T21:58:09.992Z</time></trkpt><trkpt lat="45.53841536940856" lon="11.527872110140294"><ele>37.0</ele><time>2026-04-01T21:58:10.993Z</time></trkpt><trkpt lat="45.538483174578644" lon="11.527654048555377"><ele>37.0</ele><time>2026-04-01T21:58:11.993Z</time></trkpt><trkpt lat="45.53855265107913" lon="11.527459293083593"><ele>37.2</ele><time>2026-04-01T21:58:12.994Z</time></trkpt><trkpt lat="45.53861379701586" lon="11.52730863798082"><ele>37.400000000000006</ele><time>2026-04-01T21:58:13.994Z</time></trkpt><trkpt lat="45.538650375003" lon="11.52716738273544"><ele>37.599999999999994</ele><time>2026-04-01T21:58:14.995Z</time></trkpt><trkpt lat="45.53869522355228" lon="11.527088697054445"><ele>37.8</ele><time>2026-04-01T21:58:15.995Z</time></trkpt><trkpt lat="45.538705709167274" lon="11.526968566173394"><ele>38.0</ele><time>2026-04-01T21:58:17.996Z</time></trkpt><trkpt lat="45.53870460524432" lon="11.526796696774294"><ele>38.0</ele><time>2026-04-01T21:58:19.996Z</time></trkpt><trkpt lat="45.53864197246922" lon="11.526706570443796"><ele>38.0</ele><time>2026-04-01T21:58:21.997Z</time></trkpt><trkpt lat="45.53852216026484" lon="11.526681640550036"><ele>38.0</ele><time>2026-04-01T21:58:23.997Z</time></trkpt><trkpt lat="45.53842001489015" lon="11.526632933106416"><ele>38.0</ele><time>2026-04-01T21:58:24.997Z</time></trkpt><trkpt lat="45.53833535761831" lon="11.526589431059035"><ele>38.0</ele><time>2026-04-01T21:58:25.998Z</time></trkpt><trkpt lat="45.53825874163903" lon="11.526528101790296"><ele>38.0</ele><time>2026-04-01T21:58:26.998Z</time></trkpt><trkpt lat="45.53806964232858" lon="11.526477352778926"><ele>38.0</ele><time>2026-04-01T21:58:27.998Z</time></trkpt><trkpt lat="45.53811719074271" lon="11.526385691966071"><ele>38.0</ele><time>2026-04-01T21:58:28.998Z</time></trkpt><trkpt lat="45.53817265849203" lon="11.526278065157108"><ele>38.0</ele><time>2026-04-01T21:58:29.998Z</time></trkpt><trkpt lat="45.538208087550814" lon="11.526148672932441"><ele>38.0</ele><time>2026-04-01T21:58:30.998Z</time></trkpt><trkpt lat="45.538260534849734" lon="11.52600007202591"><ele>38.0</ele><time>2026-04-01T21:58:31.999Z</time></trkpt><trkpt lat="45.5382957803558" lon="11.525901040409549"><ele>38.0</ele><time>2026-04-01T21:58:32.999Z</time></trkpt><trkpt lat="45.538345685182264" lon="11.525755941413438"><ele>38.0</ele><time>2026-04-01T21:58:34.999Z</time></trkpt><trkpt lat="45.538489733183305" lon="11.525734936243182"><ele>38.0</ele><time>2026-04-01T21:58:37.999Z</time></trkpt><trkpt lat="45.538570538884706" lon="11.525817995807973"><ele>38.0</ele><time>2026-04-01T21:58:38.999Z</time></trkpt><trkpt lat="45.53867032787753" lon="11.525902882781029"><ele>38.0</ele><time>2026-04-01T21:58:39.999Z</time></trkpt><trkpt lat="45.538774634676166" lon="11.525959797416112"><ele>38.0</ele><time>2026-04-01T21:58:40.999Z</time></trkpt><trkpt lat="45.53889796197315" lon="11.526025114244682"><ele>37.75</ele><time>2026-04-01T21:58:42Z</time></trkpt><trkpt lat="45.53904258583954" lon="11.526129578551231"><ele>37.5</ele><time>2026-04-01T21:58:43Z</time></trkpt><trkpt lat="45.53916959289331" lon="11.526213189223762"><ele>37.25</ele><time>2026-04-01T21:58:44Z</time></trkpt><trkpt lat="45.53929189533766" lon="11.526305598973773"><ele>37.0</ele><time>2026-04-01T21:58:45Z</time></trkpt><trkpt lat="45.53937900235231" lon="11.526364774816724"><ele>37.0</ele><time>2026-04-01T21:58:46Z</time></trkpt><trkpt lat="45.53945582869342" lon="11.526408625052731"><ele>37.0</ele><time>2026-04-01T21:58:47Z</time></trkpt><trkpt lat="45.53951491630992" lon="11.526460197464372"><ele>37.0</ele><time>2026-04-01T21:58:48Z</time></trkpt><trkpt lat="45.539596150842016" lon="11.52638855506189"><ele>37.0</ele><time>2026-04-01T21:58:49Z</time></trkpt><trkpt lat="45.53963425739154" lon="11.526291099284048"><ele>37.0</ele><time>2026-04-01T21:58:50Z</time></trkpt><trkpt lat="45.53959080947138" lon="11.526163124266645"><ele>37.0</ele><time>2026-04-01T21:58:51Z</time></trkpt><trkpt lat="45.53952462505297" lon="11.526090644132958"><ele>37.0</ele><time>2026-04-01T21:58:52Z</time></trkpt><trkpt lat="45.53950040122673" lon="11.52597498667505"><ele>37.0</ele><time>2026-04-01T21:58:53Z</time></trkpt><trkpt lat="45.53946776070976" lon="11.525819143550724"><ele>37.0</ele><time>2026-04-01T21:58:54Z</time></trkpt><trkpt lat="45.53943334451903" lon="11.525654822367736"><ele>37.0</ele><time>2026-04-01T21:58:55Z</time></trkpt><trkpt lat="45.539391366695085" lon="11.525453352702261"><ele>37.0</ele><time>2026-04-01T21:58:56Z</time></trkpt><trkpt lat="45.539352618728195" lon="11.525267380641148"><ele>37.0</ele><time>2026-04-01T21:58:57Z</time></trkpt><trkpt lat="45.53931782942056" lon="11.52510040835172"><ele>37.0</ele><time>2026-04-01T21:58:58Z</time></trkpt><trkpt lat="45.539312484915115" lon="11.525004397442851"><ele>37.0</ele><time>2026-04-01T21:58:59Z</time></trkpt><trkpt lat="45.53927817776961" lon="11.524917588511586"><ele>37.0</ele><time>2026-04-01T21:59:00Z</time></trkpt><trkpt lat="45.53945304905969" lon="11.524905917715852"><ele>37.0</ele><time>2026-04-01T21:59:02Z</time></trkpt><trkpt lat="45.539499339965786" lon="11.524774155837608"><ele>37.0</ele><time>2026-04-01T21:59:03Z</time></trkpt><trkpt lat="45.539581357023465" lon="11.524735333126264"><ele>37.0</ele><time>2026-04-01T21:59:04.001Z</time></trkpt><trkpt lat="45.53966624942242" lon="11.524702989768164"><ele>37.0</ele><time>2026-04-01T21:59:05.001Z</time></trkpt><trkpt lat="45.539748876323145" lon="11.524650798534786"><ele>37.0</ele><time>2026-04-01T21:59:06.001Z</time></trkpt><trkpt lat="45.539845856299415" lon="11.524600777920925"><ele>36.75</ele><time>2026-04-01T21:59:07.001Z</time></trkpt><trkpt lat="45.539963117958024" lon="11.52454425452126"><ele>36.5</ele><time>2026-04-01T21:59:08.001Z</time></trkpt><trkpt lat="45.54008184969563" lon="11.52448688950219"><ele>36.25</ele><time>2026-04-01T21:59:09.001Z</time></trkpt><trkpt lat="45.54020526836341" lon="11.524428691735377"><ele>36.0</ele><time>2026-04-01T21:59:10.001Z</time></trkpt><trkpt lat="45.540329831937186" lon="11.524359428958336"><ele>36.2</ele><time>2026-04-01T21:59:11.001Z</time></trkpt><trkpt lat="45.5404562799824" lon="11.52429009489259"><ele>36.400000000000006</ele><time>2026-04-01T21:59:12.001Z</time></trkpt><trkpt lat="45.540557891753316" lon="11.524240463445192"><ele>36.6</ele><time>2026-04-01T21:59:13.001Z</time></trkpt><trkpt lat="45.54064877918693" lon="11.52418681102595"><ele>36.800000000000004</ele><time>2026-04-01T21:59:14.001Z</time></trkpt><trkpt lat="45.54073005898358" lon="11.52415281188214"><ele>37.0</ele><time>2026-04-01T21:59:15.001Z</time></trkpt><trkpt lat="45.5408103010911" lon="11.52411156363229"><ele>37.0</ele><time>2026-04-01T21:59:16.001Z</time></trkpt><trkpt lat="45.540887851144696" lon="11.52407989153081"><ele>37.0</ele><time>2026-04-01T21:59:17.001Z</time></trkpt><trkpt lat="45.54095910355513" lon="11.524054366009791"><ele>37.0</ele><time>2026-04-01T21:59:18.001Z</time></trkpt><trkpt lat="45.541129409372026" lon="11.524045227689943"><ele>37.0</ele><time>2026-04-01T21:59:20.001Z</time></trkpt><trkpt lat="45.54116455381787" lon="11.52426033807694"><ele>37.5</ele><time>2026-04-01T21:59:21.001Z</time></trkpt><trkpt lat="45.541220151603056" lon="11.524400798295892"><ele>38.0</ele><time>2026-04-01T21:59:22.001Z</time></trkpt><trkpt lat="45.541283061206244" lon="11.524561764257468"><ele>38.5</ele><time>2026-04-01T21:59:23.001Z</time></trkpt><trkpt lat="45.54136178547766" lon="11.524731448343557"><ele>39.0</ele><time>2026-04-01T21:59:24.001Z</time></trkpt><trkpt lat="45.541427472167314" lon="11.524923965158271"><ele>39.0</ele><time>2026-04-01T21:59:25.001Z</time></trkpt><trkpt lat="45.54150632647677" lon="11.525122841396529"><ele>39.0</ele><time>2026-04-01T21:59:26.001Z</time></trkpt><trkpt lat="45.54158443782239" lon="11.525329835206218"><ele>39.0</ele><time>2026-04-01T21:59:27.001Z</time></trkpt><trkpt lat="45.54166026673479" lon="11.525544458319544"><ele>38.4</ele><time>2026-04-01T21:59:28.001Z</time></trkpt><trkpt lat="45.54173010908425" lon="11.525720708674353"><ele>37.8</ele><time>2026-04-01T21:59:29.001Z</time></trkpt><trkpt lat="45.54176423372546" lon="11.525842015288095"><ele>37.2</ele><time>2026-04-01T21:59:30.001Z</time></trkpt><trkpt lat="45.54180135435808" lon="11.525961475135508"><ele>36.6</ele><time>2026-04-01T21:59:31.001Z</time></trkpt><trkpt lat="45.54182723813912" lon="11.526056951885213"><ele>36.0</ele><time>2026-04-01T21:59:32.001Z</time></trkpt><trkpt lat="45.54186204346784" lon="11.526132002355457"><ele>36.0</ele><time>2026-04-01T21:59:33.001Z</time></trkpt><trkpt lat="45.54188836282997" lon="11.526233067268386"><ele>36.0</ele><time>2026-04-01T21:59:34.001Z</time></trkpt><trkpt lat="45.54199344262179" lon="11.526164621475754"><ele>36.0</ele><time>2026-04-01T21:59:37.001Z</time></trkpt><trkpt lat="45.54193413303464" lon="11.52598729574747"><ele>36.0</ele><time>2026-04-01T21:59:38.001Z</time></trkpt><trkpt lat="45.54187858713786" lon="11.525869655535988"><ele>36.0</ele><time>2026-04-01T21:59:39.001Z</time></trkpt><trkpt lat="45.541813467271204" lon="11.525729008582232"><ele>36.0</ele><time>2026-04-01T21:59:40.001Z</time></trkpt><trkpt lat="45.541747522929" lon="11.525574567208317"><ele>36.0</ele><time>2026-04-01T21:59:41.001Z</time></trkpt><trkpt lat="45.541678375520995" lon="11.52541015258368"><ele>36.0</ele><time>2026-04-01T21:59:42.001Z</time></trkpt><trkpt lat="45.54159346204165" lon="11.525214270405145"><ele>36.0</ele><time>2026-04-01T21:59:43.001Z</time></trkpt><trkpt lat="45.54150702031177" lon="11.525029061932232"><ele>37.0</ele><time>2026-04-01T21:59:44.001Z</time></trkpt><trkpt lat="45.541422645739495" lon="11.52481638880181"><ele>38.0</ele><time>2026-04-01T21:59:45.001Z</time></trkpt><trkpt lat="45.541331240467564" lon="11.524592678049272"><ele>39.0</ele><time>2026-04-01T21:59:46.001Z</time></trkpt><trkpt lat="45.541241974290216" lon="11.524373312196369"><ele>38.333333333333336</ele><time>2026-04-01T21:59:47.001Z</time></trkpt><trkpt lat="45.541148179617046" lon="11.524139567879928"><ele>37.66666666666667</ele><time>2026-04-01T21:59:48.001Z</time></trkpt><trkpt lat="45.54105962760601" lon="11.523894692009565"><ele>37.0</ele><time>2026-04-01T21:59:49.001Z</time></trkpt><trkpt lat="45.540975662196715" lon="11.523662592497"><ele>36.75</ele><time>2026-04-01T21:59:50.001Z</time></trkpt><trkpt lat="45.54088871053826" lon="11.523438246838952"><ele>36.5</ele><time>2026-04-01T21:59:51.001Z</time></trkpt><trkpt lat="45.54082472383555" lon="11.523265338198538"><ele>36.25</ele><time>2026-04-01T21:59:52.001Z</time></trkpt><trkpt lat="45.54076950864349" lon="11.523100278485439"><ele>36.0</ele><time>2026-04-01T21:59:53.001Z</time></trkpt><trkpt lat="45.5407139063021" lon="11.522950497711173"><ele>36.0</ele><time>2026-04-01T21:59:54.001Z</time></trkpt><trkpt lat="45.54066789440464" lon="11.522802208447478"><ele>36.0</ele><time>2026-04-01T21:59:55.001Z</time></trkpt><trkpt lat="45.540620243007716" lon="11.52266996957338"><ele>36.0</ele><time>2026-04-01T21:59:56.001Z</time></trkpt><trkpt lat="45.540595457399704" lon="11.522533122501788"><ele>36.0</ele><time>2026-04-01T21:59:57.001Z</time></trkpt><trkpt lat="45.540668656361944" lon="11.522425784507"><ele>36.0</ele><time>2026-04-01T21:59:58.001Z</time></trkpt><trkpt lat="45.540759460269356" lon="11.52236068805015"><ele>36.0</ele><time>2026-04-01T21:59:59.001Z</time></trkpt><trkpt lat="45.5408600934524" lon="11.522311962158474"><ele>36.0</ele><time>2026-04-01T22:00:00.001Z</time></trkpt><trkpt lat="45.54096204650374" lon="11.522240708511283"><ele>36.0</ele><time>2026-04-01T22:00:01.001Z</time></trkpt><trkpt lat="45.541063733793685" lon="11.52213094198863"><ele>36.0</ele><time>2026-04-01T22:00:02.001Z</time></trkpt><trkpt lat="45.54118747047645" lon="11.522066100889099"><ele>36.0</ele><time>2026-04-01T22:00:03.001Z</time></trkpt><trkpt lat="45.541316071747914" lon="11.521953314784735"><ele>36.0</ele><time>2026-04-01T22:00:04.001Z</time></trkpt><trkpt lat="45.54144253604949" lon="11.521855063837133"><ele>36.0</ele><time>2026-04-01T22:00:05.001Z</time></trkpt><trkpt lat="45.54159934544333" lon="11.5217571419556"><ele>36.0</ele><time>2026-04-01T22:00:05.999Z</time></trkpt><trkpt lat="45.54174535912149" lon="11.521625465244172"><ele>36.0</ele><time>2026-04-01T22:00:06.999Z</time></trkpt><trkpt lat="45.541906284748165" lon="11.521524488013345"><ele>36.0</ele><time>2026-04-01T22:00:07.999Z</time></trkpt><trkpt lat="45.542073017785846" lon="11.52140779089639"><ele>36.0</ele><time>2026-04-01T22:00:08.999Z</time></trkpt><trkpt lat="45.542230028326394" lon="11.521289237001058"><ele>36.0</ele><time>2026-04-01T22:00:09.999Z</time></trkpt><trkpt lat="45.542359516758424" lon="11.521184678360225"><ele>36.0</ele><time>2026-04-01T22:00:10.999Z</time></trkpt><trkpt lat="45.54248250755041" lon="11.521095967081312"><ele>36.25</ele><time>2026-04-01T22:00:11.999Z</time></trkpt><trkpt lat="45.54261023227603" lon="11.521010478174592"><ele>36.5</ele><time>2026-04-01T22:00:12.999Z</time></trkpt><trkpt lat="45.54273435465406" lon="11.520929284928418"><ele>36.75</ele><time>2026-04-01T22:00:13.999Z</time></trkpt><trkpt lat="45.54284989153577" lon="11.520856342767345"><ele>37.0</ele><time>2026-04-01T22:00:14.999Z</time></trkpt><trkpt lat="45.54295157637867" lon="11.520789702263468"><ele>36.6</ele><time>2026-04-01T22:00:15.999Z</time></trkpt><trkpt lat="45.54305420089229" lon="11.520710344771798"><ele>36.2</ele><time>2026-04-01T22:00:16.999Z</time></trkpt><trkpt lat="45.54314970865313" lon="11.520676007064367"><ele>35.8</ele><time>2026-04-01T22:00:17.999Z</time></trkpt><trkpt lat="45.54324321382511" lon="11.520646983750023"><ele>35.4</ele><time>2026-04-01T22:00:18.999Z</time></trkpt><trkpt lat="45.54332412060493" lon="11.520539882357827"><ele>35.0</ele><time>2026-04-01T22:00:19.999Z</time></trkpt><trkpt lat="45.543418261861895" lon="11.52043064857199"><ele>35.666666666666664</ele><time>2026-04-01T22:00:20.999Z</time></trkpt><trkpt lat="45.54353223612735" lon="11.520298823614205"><ele>36.333333333333336</ele><time>2026-04-01T22:00:21.999Z</time></trkpt><trkpt lat="45.54366145665461" lon="11.520187819553207"><ele>37.0</ele><time>2026-04-01T22:00:22.999Z</time></trkpt><trkpt lat="45.54379718679615" lon="11.520072592459945"><ele>37.0</ele><time>2026-04-01T22:00:23.999Z</time></trkpt><trkpt lat="45.543944866472366" lon="11.519971291220923"><ele>37.0</ele><time>2026-04-01T22:00:25Z</time></trkpt><trkpt lat="45.544098175094035" lon="11.519851638179304"><ele>37.0</ele><time>2026-04-01T22:00:26Z</time></trkpt><trkpt lat="45.54425859120058" lon="11.519728326890732"><ele>37.0</ele><time>2026-04-01T22:00:27Z</time></trkpt><trkpt lat="45.54443243466762" lon="11.519611371098636"><ele>37.0</ele><time>2026-04-01T22:00:28Z</time></trkpt><trkpt lat="45.54459541452325" lon="11.519483008053442"><ele>37.0</ele><time>2026-04-01T22:00:29Z</time></trkpt><trkpt lat="45.54476272506075" lon="11.5193591122195"><ele>36.66666666666667</ele><time>2026-04-01T22:00:30Z</time></trkpt><trkpt lat="45.544936867842566" lon="11.519228356475406"><ele>36.333333333333336</ele><time>2026-04-01T22:00:31Z</time></trkpt><trkpt lat="45.54510605996692" lon="11.51909957230727"><ele>36.0</ele><time>2026-04-01T22:00:32Z</time></trkpt><trkpt lat="45.54527848998445" lon="11.51896944613867"><ele>36.333333333333336</ele><time>2026-04-01T22:00:33Z</time></trkpt><trkpt lat="45.545449615868826" lon="11.51884213087606"><ele>36.66666666666667</ele><time>2026-04-01T22:00:34Z</time></trkpt><trkpt lat="45.545627915257626" lon="11.51870797081535"><ele>37.0</ele><time>2026-04-01T22:00:35Z</time></trkpt><trkpt lat="45.545792466405686" lon="11.51859884155487"><ele>37.0</ele><time>2026-04-01T22:00:36Z</time></trkpt><trkpt lat="45.545971446191075" lon="11.518456567409794"><ele>37.0</ele><time>2026-04-01T22:00:37Z</time></trkpt><trkpt lat="45.546137303800535" lon="11.518324521108248"><ele>37.0</ele><time>2026-04-01T22:00:38Z</time></trkpt><trkpt lat="45.546306111544304" lon="11.518194465424955"><ele>36.66666666666667</ele><time>2026-04-01T22:00:39Z</time></trkpt><trkpt lat="45.54646883243732" lon="11.518073616918267"><ele>36.333333333333336</ele><time>2026-04-01T22:00:40Z</time></trkpt><trkpt lat="45.546616687980105" lon="11.517955046725858"><ele>36.0</ele><time>2026-04-01T22:00:41Z</time></trkpt><trkpt lat="45.54676840685013" lon="11.517842565346701"><ele>36.0</ele><time>2026-04-01T22:00:42Z</time></trkpt><trkpt lat="45.54690378692321" lon="11.517730048648342"><ele>36.0</ele><time>2026-04-01T22:00:43Z</time></trkpt><trkpt lat="45.547039922323044" lon="11.517633562750092"><ele>36.0</ele><time>2026-04-01T22:00:44Z</time></trkpt><trkpt lat="45.547171245432786" lon="11.517549048983097"><ele>35.75</ele><time>2026-04-01T22:00:45Z</time></trkpt><trkpt lat="45.547282560399964" lon="11.517462416295821"><ele>35.5</ele><time>2026-04-01T22:00:46Z</time></trkpt><trkpt lat="45.547380742792576" lon="11.517395147713616"><ele>35.25</ele><time>2026-04-01T22:00:47Z</time></trkpt><trkpt lat="45.5475285759016" lon="11.517369098603426"><ele>35.0</ele><time>2026-04-01T22:00:48Z</time></trkpt><trkpt lat="45.54762564054239" lon="11.517314654600618"><ele>35.0</ele><time>2026-04-01T22:00:49Z</time></trkpt><trkpt lat="45.54769405073151" lon="11.517324382452818"><ele>35.0</ele><time>2026-04-01T22:00:50Z</time></trkpt><trkpt lat="45.54776115461381" lon="11.517302927274597"><ele>35.0</ele><time>2026-04-01T22:00:51Z</time></trkpt><trkpt lat="45.54781784348556" lon="11.517136772411478"><ele>35.0</ele><time>2026-04-01T22:00:53Z</time></trkpt><trkpt lat="45.54776377701461" lon="11.517040603656493"><ele>35.0</ele><time>2026-04-01T22:00:54Z</time></trkpt><trkpt lat="45.547730904424256" lon="11.516912937234588"><ele>35.0</ele><time>2026-04-01T22:00:55Z</time></trkpt><trkpt lat="45.54767583345251" lon="11.516779336482475"><ele>35.25</ele><time>2026-04-01T22:00:56Z</time></trkpt><trkpt lat="45.54764712968429" lon="11.516588489041014"><ele>35.5</ele><time>2026-04-01T22:00:57Z</time></trkpt><trkpt lat="45.54761050428087" lon="11.51640610118194"><ele>35.75</ele><time>2026-04-01T22:00:58Z</time></trkpt><trkpt lat="45.547585707631825" lon="11.516192642313388"><ele>36.0</ele><time>2026-04-01T22:00:59Z</time></trkpt><trkpt lat="45.547577130395894" lon="11.515959073302449"><ele>35.333333333333336</ele><time>2026-04-01T22:01:00Z</time></trkpt><trkpt lat="45.547582504114835" lon="11.515726605834496"><ele>34.66666666666667</ele><time>2026-04-01T22:01:01Z</time></trkpt><trkpt lat="45.547593826167564" lon="11.515481114364755"><ele>34.0</ele><time>2026-04-01T22:01:02Z</time></trkpt><trkpt lat="45.54761072549856" lon="11.515253338204802"><ele>33.75</ele><time>2026-04-01T22:01:03Z</time></trkpt><trkpt lat="45.54763490689503" lon="11.51504988153729"><ele>33.5</ele><time>2026-04-01T22:01:04Z</time></trkpt><trkpt lat="45.54766829734001" lon="11.514879683239936"><ele>33.25</ele><time>2026-04-01T22:01:05.001Z</time></trkpt><trkpt lat="45.5477131968744" lon="11.514727026565032"><ele>33.0</ele><time>2026-04-01T22:01:06.001Z</time></trkpt><trkpt lat="45.54774513380176" lon="11.514607405736852"><ele>33.0</ele><time>2026-04-01T22:01:07.001Z</time></trkpt><trkpt lat="45.54786523964701" lon="11.514523823628801"><ele>33.0</ele><time>2026-04-01T22:01:08.001Z</time></trkpt><trkpt lat="45.5479620221699" lon="11.514468560243479"><ele>33.0</ele><time>2026-04-01T22:01:09.001Z</time></trkpt><trkpt lat="45.54806003592619" lon="11.514453806213798"><ele>33.0</ele><time>2026-04-01T22:01:10.001Z</time></trkpt><trkpt lat="45.54816058597735" lon="11.514544131026692"><ele>34.0</ele><time>2026-04-01T22:01:11.001Z</time></trkpt><trkpt lat="45.54826724375951" lon="11.514577389403751"><ele>35.0</ele><time>2026-04-01T22:01:12.001Z</time></trkpt><trkpt lat="45.548386361875906" lon="11.514617455176955"><ele>36.0</ele><time>2026-04-01T22:01:13.001Z</time></trkpt><trkpt lat="45.548532571580196" lon="11.51465287256519"><ele>37.0</ele><time>2026-04-01T22:01:14.001Z</time></trkpt><trkpt lat="45.548649276947955" lon="11.514676382809075"><ele>37.2</ele><time>2026-04-01T22:01:15.001Z</time></trkpt><trkpt lat="45.548766650990515" lon="11.514708441943057"><ele>37.400000000000006</ele><time>2026-04-01T22:01:16.001Z</time></trkpt><trkpt lat="45.5488612403876" lon="11.514727557811648"><ele>37.599999999999994</ele><time>2026-04-01T22:01:17.001Z</time></trkpt><trkpt lat="45.54897020780202" lon="11.514688969293433"><ele>37.8</ele><time>2026-04-01T22:01:20.001Z</time></trkpt><trkpt lat="45.54899941122909" lon="11.51459307884869"><ele>38.0</ele><time>2026-04-01T22:01:41.001Z</time></trkpt><trkpt lat="45.54901932567239" lon="11.514457188755967"><ele>38.33333333333333</ele><time>2026-04-01T22:01:44.001Z</time></trkpt><trkpt lat="45.54903800082377" lon="11.514361376258227"><ele>38.666666666666664</ele><time>2026-04-01T22:01:46.001Z</time></trkpt><trkpt lat="45.54901575463525" lon="11.514269388313451"><ele>39.0</ele><time>2026-04-01T22:02:03.002Z</time></trkpt><trkpt lat="45.54893151192217" lon="11.514275512514319"><ele>39.333333333333336</ele><time>2026-04-01T22:02:10.002Z</time></trkpt><trkpt lat="45.54886985207221" lon="11.514314299530598"><ele>39.66666666666667</ele><time>2026-04-01T22:02:13Z</time></trkpt><trkpt lat="45.54880454256458" lon="11.51437328994161"><ele>40.0</ele><time>2026-04-01T22:02:16Z</time></trkpt><trkpt lat="45.54887841380311" lon="11.514243145884125"><ele>40.0</ele><time>2026-04-01T22:02:18Z</time></trkpt><trkpt lat="45.548835809736694" lon="11.514314710507746"><ele>40.0</ele><time>2026-04-01T22:02:39Z</time></trkpt><trkpt lat="45.54879334918493" lon="11.51439451600292"><ele>40.0</ele><time>2026-04-01T22:02:43Z</time></trkpt><trkpt lat="45.54872894898922" lon="11.514429922457634"><ele>40.0</ele><time>2026-04-01T22:02:47Z</time></trkpt><trkpt lat="45.54879820701931" lon="11.514419051540786"><ele>40.0</ele><time>2026-04-01T22:03:19.001Z</time></trkpt><trkpt lat="45.54886300321274" lon="11.514307364020727"><ele>40.0</ele><time>2026-04-01T22:03:20.001Z</time></trkpt><trkpt lat="45.54891872659008" lon="11.51422766382264"><ele>40.0</ele><time>2026-04-01T22:03:22.001Z</time></trkpt><trkpt lat="45.548942063307656" lon="11.514129139070818"><ele>40.0</ele><time>2026-04-01T22:03:24.001Z</time></trkpt><trkpt lat="45.54916648090464" lon="11.514066802298125"><ele>40.0</ele><time>2026-04-01T22:03:38.001Z</time></trkpt><trkpt lat="45.54923131540959" lon="11.5141403413894"><ele>40.0</ele><time>2026-04-01T22:03:39.001Z</time></trkpt><trkpt lat="45.54919975358364" lon="11.514259049151834"><ele>40.0</ele><time>2026-04-01T22:03:45.001Z</time></trkpt><trkpt lat="45.549081964460974" lon="11.51422474534392"><ele>40.0</ele><time>2026-04-01T22:03:58.002Z</time></trkpt><trkpt lat="45.549281247402504" lon="11.514281271131733"><ele>40.0</ele><time>2026-04-01T22:04:37.426Z</time></trkpt><trkpt lat="45.54899500521247" lon="11.514292285739048"><ele>40.0</ele><time>2026-04-01T22:04:42.526Z</time></trkpt><trkpt lat="45.54908508967932" lon="11.514309848279446"><ele>40.0</ele><time>2026-04-01T22:10:05.001Z</time></trkpt><trkpt lat="45.54899500521247" lon="11.514292285739048"><ele>40.0</ele><time>2026-04-01T22:12:13.529Z</time></trkpt></trkseg></trk></gpx>